createdAt,value
2022-09-21T00:01:40.513Z,55.38
2022-09-21T00:04:44.856Z,55.32
2022-09-21T00:07:47.674Z,55.29
2022-09-21T00:10:50.912Z,56.71
2022-09-21T00:13:54.264Z,56.38
2022-09-21T00:17:00.897Z,55.84
2022-09-21T00:20:05.658Z,56.26
2022-09-21T00:23:08.489Z,56.17
2022-09-21T00:26:12.351Z,55.46
2022-09-21T00:29:15.192Z,55.70
2022-09-21T00:32:18.071Z,55.59
2022-09-21T00:35:22.368Z,55.62
2022-09-21T00:38:25.143Z,55.77
2022-09-21T00:41:28.430Z,55.25
2022-09-21T00:44:32.891Z,55.63
2022-09-21T00:47:37.105Z,55.88
2022-09-21T00:50:43.215Z,55.54
2022-09-21T00:53:46.956Z,55.87
2022-09-21T00:56:50.056Z,56.13
2022-09-21T00:59:54.120Z,56.17
2022-09-21T01:03:01.462Z,55.28
2022-09-21T01:06:05.781Z,55.62
2022-09-21T01:09:09.148Z,55.56
2022-09-21T01:12:20.596Z,55.23
2022-09-21T01:15:30.096Z,55.34
2022-09-21T01:18:36.334Z,55.40
2022-09-21T01:21:43.866Z,55.07
2022-09-21T01:25:06.160Z,55.29
2022-09-21T01:28:13.992Z,55.67
2022-09-21T01:31:21.434Z,55.17
2022-09-21T01:34:28.623Z,55.28
2022-09-21T01:37:34.988Z,55.32
2022-09-21T01:40:41.439Z,55.84
2022-09-21T01:43:47.686Z,55.49
2022-09-21T01:46:53.010Z,55.63
2022-09-21T01:49:58.883Z,55.91
2022-09-21T01:53:04.009Z,55.61
2022-09-21T01:56:09.183Z,55.52
2022-09-21T01:59:17.243Z,55.83
2022-09-21T02:02:26.083Z,55.79
2022-09-21T02:05:31.278Z,55.95
2022-09-21T02:08:34.580Z,55.51
2022-09-21T02:11:43.917Z,55.58
2022-09-21T02:14:47.065Z,55.70
2022-09-21T02:17:55.620Z,55.77
2022-09-21T02:21:00.094Z,55.20
2022-09-21T02:24:09.767Z,55.58
2022-09-21T02:27:16.351Z,55.57
2022-09-21T02:30:20.308Z,55.42
2022-09-21T02:33:28.276Z,55.82
2022-09-21T02:36:35.652Z,55.45
2022-09-21T02:39:41.899Z,55.36
2022-09-21T02:42:46.531Z,55.81
2022-09-21T02:45:52.685Z,56.04
2022-09-21T02:49:00.607Z,55.58
2022-09-21T02:52:06.142Z,55.45
2022-09-21T02:55:10.641Z,55.49
2022-09-21T02:58:16.516Z,55.52
2022-09-21T03:01:20.593Z,55.76
2022-09-21T03:04:24.724Z,55.73
2022-09-21T03:07:27.371Z,55.41
2022-09-21T03:10:30.056Z,55.36
2022-09-21T03:13:32.848Z,55.65
2022-09-21T03:16:35.554Z,55.16
2022-09-21T03:19:39.596Z,55.33
2022-09-21T03:22:42.324Z,55.48
2022-09-21T03:25:45.493Z,55.87
2022-09-21T03:28:48.177Z,55.76
2022-09-21T03:31:52.534Z,55.75
2022-09-21T03:34:56.588Z,55.66
2022-09-21T03:37:59.535Z,55.99
2022-09-21T03:41:02.280Z,55.57
2022-09-21T03:44:05.009Z,55.51
2022-09-21T03:47:07.727Z,55.28
2022-09-21T03:50:13.046Z,55.28
2022-09-21T03:53:15.752Z,55.39
2022-09-21T03:56:18.413Z,55.44
2022-09-21T03:59:21.158Z,55.85
2022-09-21T04:02:23.862Z,55.41
2022-09-21T04:05:27.938Z,55.48
2022-09-21T04:08:33.001Z,55.14
2022-09-21T04:11:35.881Z,55.31
2022-09-21T04:14:38.598Z,55.36
2022-09-21T04:17:41.680Z,54.78
2022-09-21T04:20:45.768Z,54.79
2022-09-21T04:23:49.702Z,55.09
2022-09-21T04:26:52.573Z,55.55
2022-09-21T04:29:55.233Z,55.21
2022-09-21T04:32:57.916Z,54.80
2022-09-21T04:36:02.076Z,55.32
2022-09-21T04:39:05.581Z,55.23
2022-09-21T04:42:08.355Z,55.24
2022-09-21T04:45:11.560Z,54.65
2022-09-21T04:48:14.288Z,54.76
2022-09-21T04:51:18.885Z,55.26
2022-09-21T04:54:21.595Z,55.55
2022-09-21T04:57:24.298Z,54.61
2022-09-21T05:00:34.138Z,55.02
2022-09-21T05:03:37.040Z,55.38
2022-09-21T05:06:41.442Z,55.38
2022-09-21T05:10:01.855Z,54.00
2022-09-21T05:13:04.532Z,53.91
2022-09-21T05:16:07.281Z,53.81
2022-09-21T05:19:10.021Z,54.77
2022-09-21T05:22:14.066Z,53.23
2022-09-21T05:25:17.570Z,54.20
2022-09-21T05:28:20.911Z,54.17
2022-09-21T05:31:37.242Z,56.23
2022-09-21T05:34:46.359Z,55.50
2022-09-21T05:37:53.337Z,57.54
2022-09-21T05:40:56.225Z,56.61
2022-09-21T05:43:59.168Z,55.36
2022-09-21T05:47:05.246Z,54.87
2022-09-21T05:50:18.298Z,54.48
2022-09-21T05:53:29.298Z,54.80
2022-09-21T05:56:47.604Z,54.07
2022-09-21T05:59:59.418Z,54.64
2022-09-21T06:03:17.915Z,54.43
2022-09-21T06:06:22.097Z,54.10
2022-09-21T06:09:27.919Z,54.29
2022-09-21T06:12:30.797Z,53.93
2022-09-21T06:15:38.326Z,54.18
2022-09-21T06:18:42.406Z,54.90
2022-09-21T06:21:45.211Z,54.17
2022-09-21T06:24:49.216Z,54.04
2022-09-21T06:27:51.923Z,53.57
2022-09-21T06:30:55.301Z,53.65
2022-09-21T06:33:58.096Z,53.30
2022-09-21T06:37:01.008Z,52.84
2022-09-21T06:40:05.527Z,52.52
2022-09-21T06:43:08.517Z,52.38
2022-09-21T06:46:11.263Z,52.06
2022-09-21T06:49:13.914Z,51.69
2022-09-21T06:52:16.953Z,51.39
2022-09-21T06:55:21.232Z,51.27
2022-09-21T06:58:24.036Z,51.45
2022-09-21T07:01:27.149Z,51.12
2022-09-21T07:04:30.071Z,51.67
2022-09-21T07:07:32.775Z,51.68
2022-09-21T07:10:36.744Z,51.51
2022-09-21T07:13:39.431Z,51.70
2022-09-21T07:16:43.058Z,51.09
2022-09-21T07:19:45.703Z,50.61
2022-09-21T07:22:48.627Z,50.87
2022-09-21T07:25:52.658Z,50.64
2022-09-21T07:28:55.488Z,50.34
2022-09-21T07:31:58.225Z,49.91
2022-09-21T07:35:01.328Z,50.22
2022-09-21T07:38:06.512Z,50.53
2022-09-21T07:41:11.240Z,50.00
2022-09-21T07:44:14.011Z,49.43
2022-09-21T07:47:17.270Z,49.50
2022-09-21T07:50:20.145Z,49.67
2022-09-21T07:53:22.839Z,49.70
2022-09-21T07:56:27.080Z,49.51
2022-09-21T07:59:29.151Z,49.91
2022-09-21T08:02:31.855Z,49.52
2022-09-21T08:05:34.605Z,50.50
2022-09-21T08:08:37.563Z,51.00
2022-09-21T08:11:41.686Z,49.96
2022-09-21T08:14:44.411Z,49.73
2022-09-21T08:17:47.149Z,50.11
2022-09-21T08:20:54.299Z,49.80
2022-09-21T08:23:57.797Z,49.15
2022-09-21T08:27:01.835Z,49.50
2022-09-21T08:30:04.833Z,49.78
2022-09-21T08:33:08.280Z,49.68
2022-09-21T08:36:11.448Z,49.65
2022-09-21T08:39:14.161Z,48.59
2022-09-21T08:42:31.473Z,49.01
2022-09-21T08:45:36.696Z,48.56
2022-09-21T08:48:41.845Z,48.51
2022-09-21T08:51:50.973Z,48.75
2022-09-21T08:54:56.395Z,48.13
2022-09-21T08:58:01.556Z,47.73
2022-09-21T09:01:10.260Z,47.93
2022-09-21T09:04:33.575Z,47.32
2022-09-21T09:07:47.682Z,47.49
2022-09-21T09:10:57.661Z,47.21
2022-09-21T09:14:08.602Z,47.18
2022-09-21T09:17:21.906Z,47.10
2022-09-21T09:20:30.123Z,46.71
2022-09-21T09:23:36.008Z,46.65
2022-09-21T09:26:43.770Z,46.92
2022-09-21T09:29:52.471Z,46.33
2022-09-21T09:32:58.352Z,46.10
2022-09-21T09:36:03.056Z,45.40
2022-09-21T09:39:10.468Z,43.96
2022-09-21T09:42:25.542Z,45.32
2022-09-21T09:45:39.766Z,45.79
2022-09-21T09:48:54.072Z,45.59
2022-09-21T09:51:57.110Z,44.93
2022-09-21T09:55:00.166Z,44.88
2022-09-21T09:58:03.286Z,45.08
2022-09-21T10:01:07.568Z,44.60
2022-09-21T10:04:11.334Z,44.94
2022-09-21T10:07:19.482Z,45.04
2022-09-21T10:10:28.406Z,45.23
2022-09-21T10:13:32.476Z,44.44
2022-09-21T10:16:41.395Z,46.09
2022-09-21T10:19:44.067Z,46.69
2022-09-21T10:22:48.098Z,44.78
2022-09-21T10:25:58.620Z,45.04
2022-09-21T10:29:02.176Z,45.66
2022-09-21T10:32:11.115Z,45.39
2022-09-21T10:35:18.339Z,46.01
2022-09-21T10:38:22.841Z,45.11
2022-09-21T10:41:26.275Z,45.77
2022-09-21T10:44:30.979Z,44.50
2022-09-21T10:47:37.230Z,42.29
2022-09-21T10:50:41.243Z,42.43
2022-09-21T10:53:51.144Z,44.55
2022-09-21T10:57:02.380Z,43.87
2022-09-21T11:00:13.311Z,45.45
2022-09-21T11:03:30.748Z,44.64
2022-09-21T11:06:37.764Z,44.85
2022-09-21T11:09:43.151Z,46.37
2022-09-21T11:12:53.252Z,44.45
2022-09-21T11:15:58.004Z,45.17
2022-09-21T11:19:03.050Z,45.24
2022-09-21T11:22:09.688Z,45.72
2022-09-21T11:25:24.930Z,46.19
2022-09-21T11:28:29.912Z,47.10
2022-09-21T11:31:45.049Z,46.44
2022-09-21T11:34:58.895Z,46.26
2022-09-21T11:38:06.888Z,45.68
2022-09-21T11:41:15.202Z,45.30
2022-09-21T11:44:27.271Z,45.78
2022-09-21T11:47:36.678Z,45.54
2022-09-21T11:50:47.208Z,44.67
2022-09-21T11:53:59.946Z,46.56
2022-09-21T11:57:09.340Z,47.04
2022-09-21T12:00:15.832Z,46.50
2022-09-21T12:03:25.871Z,47.35
2022-09-21T12:06:39.978Z,47.34
2022-09-21T12:09:51.019Z,47.42
2022-09-21T12:12:57.197Z,46.98
2022-09-21T12:16:03.695Z,47.69
2022-09-21T12:19:10.681Z,48.44
2022-09-21T12:22:17.467Z,46.68
2022-09-21T12:25:24.169Z,48.35
2022-09-21T12:28:30.466Z,48.59
2022-09-21T12:31:39.427Z,47.44
2022-09-21T12:34:43.600Z,47.40
2022-09-21T12:37:49.165Z,46.87
2022-09-21T12:40:55.810Z,47.42
2022-09-21T12:44:03.931Z,47.61
2022-09-21T12:47:10.262Z,47.47
2022-09-21T12:50:19.335Z,47.04
2022-09-21T12:53:23.392Z,46.60
2022-09-21T12:56:34.033Z,47.89
2022-09-21T12:59:39.245Z,47.85
2022-09-21T13:06:06.611Z,47.33
2022-09-21T13:09:12.364Z,46.79
2022-09-21T13:12:18.894Z,46.55
2022-09-21T13:15:25.326Z,48.12
2022-09-21T13:18:33.771Z,47.25
2022-09-21T13:21:38.438Z,47.95
2022-09-21T13:24:42.378Z,46.94
2022-09-21T13:28:06.870Z,46.39
2022-09-21T13:31:43.394Z,47.15
2022-09-21T13:34:48.315Z,47.85
2022-09-21T13:38:05.796Z,47.22
2022-09-21T13:41:35.483Z,47.72
2022-09-21T13:44:49.458Z,46.41
2022-09-21T13:47:53.582Z,46.92
2022-09-21T13:51:07.321Z,47.62
2022-09-21T13:54:14.499Z,46.95
2022-09-21T13:57:19.138Z,47.37
2022-09-21T14:00:36.082Z,47.57
2022-09-21T14:03:39.860Z,47.52
2022-09-21T14:06:45.410Z,48.10
2022-09-21T14:09:56.119Z,47.72
2022-09-21T14:13:00.828Z,47.22
2022-09-21T14:16:22.221Z,48.80
2022-09-21T14:19:43.522Z,47.40
2022-09-21T14:22:47.585Z,48.91
2022-09-21T14:25:52.236Z,50.13
2022-09-21T14:28:55.020Z,49.94
2022-09-21T14:32:00.664Z,49.63
2022-09-21T14:35:10.911Z,50.34
2022-09-21T14:38:19.239Z,50.57
2022-09-21T14:41:24.155Z,50.78
2022-09-21T14:44:31.591Z,51.73
2022-09-21T14:47:49.194Z,50.65
2022-09-21T14:50:57.045Z,49.68
2022-09-21T14:54:22.545Z,50.27
2022-09-21T14:57:37.599Z,50.32
2022-09-21T15:00:50.002Z,50.45
2022-09-21T15:04:04.615Z,50.67
2022-09-21T15:07:33.533Z,51.64
2022-09-21T15:10:58.275Z,51.34
2022-09-21T15:14:22.688Z,52.98
2022-09-21T15:17:31.997Z,52.92
2022-09-21T15:20:34.688Z,50.65
2022-09-21T15:23:39.543Z,49.99
2022-09-21T15:26:44.387Z,49.72
2022-09-21T15:29:51.090Z,50.47
2022-09-21T15:32:55.298Z,49.82
2022-09-21T15:36:01.060Z,50.46
2022-09-21T15:39:03.890Z,50.44
2022-09-21T15:42:20.387Z,50.92
2022-09-21T15:45:23.666Z,51.41
2022-09-21T15:48:27.744Z,51.13
2022-09-21T15:51:32.097Z,51.62
2022-09-21T15:54:36.188Z,51.31
2022-09-21T15:57:43.236Z,50.66
2022-09-21T16:00:55.080Z,50.79
2022-09-21T16:04:04.308Z,50.96
2022-09-21T16:07:10.399Z,50.99
2022-09-21T16:10:28.507Z,51.03
2022-09-21T16:13:51.136Z,50.98
2022-09-21T16:17:13.998Z,51.34
2022-09-21T16:20:22.732Z,51.14
2022-09-21T16:23:26.776Z,51.76
2022-09-21T16:26:38.450Z,51.43
2022-09-21T18:19:59.270Z,54.76
2022-09-21T18:23:07.943Z,54.83
2022-09-21T18:26:16.556Z,54.40
2022-09-21T18:29:39.549Z,54.29
2022-09-21T18:32:57.151Z,61.17
2022-09-21T18:36:09.920Z,53.20
2022-09-21T18:39:21.661Z,53.18
2022-09-21T18:42:30.843Z,53.94
2022-09-21T18:45:38.787Z,53.98
2022-09-21T18:48:50.765Z,53.83
2022-09-21T18:52:03.161Z,53.66
2022-09-21T18:55:17.082Z,52.38
2022-09-21T18:58:24.488Z,53.14
2022-09-21T19:01:33.159Z,53.11
2022-09-21T19:04:38.802Z,53.23
2022-09-21T19:07:49.987Z,52.97
2022-09-21T19:10:59.119Z,52.69
2022-09-21T19:14:10.773Z,52.92
2022-09-21T19:17:21.076Z,52.67
2022-09-21T19:20:38.030Z,52.42
2022-09-21T19:23:59.226Z,52.67
2022-09-21T19:27:10.941Z,52.31
2022-09-21T19:30:14.741Z,52.56
2022-09-21T19:33:48.243Z,52.24
2022-09-21T19:36:51.579Z,51.82
2022-09-21T19:39:54.823Z,51.97
2022-09-21T19:43:18.325Z,52.25
2022-09-21T19:46:24.856Z,52.70
2022-09-21T19:49:36.348Z,52.07
2022-09-21T19:52:41.622Z,52.59
2022-09-21T19:56:02.736Z,52.79
2022-09-21T19:59:24.827Z,51.86
2022-09-21T20:02:32.512Z,54.08
2022-09-21T20:05:49.902Z,53.39
2022-09-21T20:08:56.558Z,55.32
2022-09-21T20:12:04.012Z,55.33
2022-09-21T20:15:12.735Z,53.60
2022-09-21T20:18:22.116Z,55.21
2022-09-21T20:21:26.271Z,54.07
2022-09-21T20:24:30.774Z,54.01
2022-09-21T20:27:36.287Z,55.05
2022-09-21T20:30:41.180Z,55.55
2022-09-21T20:33:43.871Z,54.29
2022-09-21T20:36:46.872Z,55.29
2022-09-21T20:39:49.716Z,55.06
2022-09-21T20:42:52.562Z,55.04
2022-09-21T20:45:58.505Z,53.93
2022-09-21T20:49:04.756Z,54.33
2022-09-21T20:52:09.278Z,55.05
2022-09-21T20:55:13.540Z,53.90
2022-09-21T20:58:16.404Z,52.90
2022-09-21T21:01:20.559Z,53.09
2022-09-21T21:04:23.528Z,54.20
2022-09-21T21:07:30.364Z,53.24
2022-09-21T21:10:34.316Z,55.34
2022-09-21T21:13:37.511Z,53.53
2022-09-21T21:16:41.702Z,53.80
2022-09-21T21:19:44.570Z,54.33
2022-09-21T21:22:49.792Z,53.24
2022-09-21T21:25:52.715Z,54.49
2022-09-21T21:28:55.379Z,52.99
2022-09-21T21:32:00.077Z,54.11
2022-09-21T21:35:02.821Z,54.87
2022-09-21T21:38:05.473Z,54.37
2022-09-21T21:41:08.171Z,53.25
2022-09-21T21:44:11.413Z,54.90
2022-09-21T21:47:38.197Z,53.98
2022-09-21T21:50:39.240Z,52.96
2022-09-21T21:53:42.666Z,54.75
2022-09-21T21:56:45.595Z,54.50
2022-09-21T21:59:48.248Z,54.86
2022-09-21T22:02:52.258Z,52.57
2022-09-21T22:05:56.243Z,54.38
2022-09-21T22:08:59.113Z,52.48
2022-09-21T22:12:03.539Z,54.25
2022-09-21T22:15:06.591Z,53.84
2022-09-21T22:18:10.694Z,52.11
2022-09-21T22:21:15.870Z,54.24
2022-09-21T22:24:18.679Z,54.18
2022-09-21T22:27:21.635Z,54.11
2022-09-21T22:30:24.411Z,53.59
2022-09-21T22:33:33.155Z,53.05
2022-09-21T22:36:37.362Z,53.72
2022-09-21T22:39:40.011Z,52.68
2022-09-21T22:42:42.708Z,54.41
2022-09-21T22:45:45.425Z,53.76
2022-09-21T22:48:49.613Z,50.64
2022-09-21T22:51:52.298Z,53.77
2022-09-21T22:54:54.959Z,53.70
2022-09-21T22:57:57.669Z,54.51
2022-09-21T23:01:03.970Z,54.69
2022-09-21T23:04:08.910Z,53.09
2022-09-21T23:07:11.920Z,53.40
2022-09-21T23:10:14.679Z,51.39
2022-09-21T23:13:17.327Z,53.42
2022-09-21T23:16:20.441Z,52.10
2022-09-21T23:19:24.496Z,52.65
2022-09-21T23:22:27.113Z,53.40
2022-09-21T23:25:29.814Z,53.33
2022-09-21T23:28:32.546Z,53.07
2022-09-21T23:31:35.548Z,52.90
2022-09-21T23:34:39.621Z,53.86
2022-09-21T23:37:42.311Z,52.84
2022-09-21T23:40:45.055Z,53.05
2022-09-21T23:43:47.981Z,52.74
2022-09-21T23:46:50.841Z,52.12
2022-09-21T23:49:54.918Z,52.92
2022-09-21T23:52:57.533Z,52.84
2022-09-21T23:56:00.362Z,51.39
2022-09-21T23:59:03.282Z,51.33
